sensor_id;sensor_type;location;lat;lon;timestamp;pressure;altitude;pressure_sealevel;temperature;humidity
18985;BME280;9626;52.552;13.436;2023-04-02T00:09:46;100618.41;;;3.15;100.00
18985;BME280;9626;52.552;13.436;2023-04-02T00:11:49;100620.97;;;3.10;100.00
18985;BME280;9626;52.552;13.436;2023-04-02T00:16:49;100620.03;;;3.03;100.00
18985;BME280;9626;52.552;13.436;2023-04-02T00:19:22;100627.88;;;3.00;100.00
18985;BME280;9626;52.552;13.436;2023-04-02T00:21:49;100631.34;;;3.01;100.00
18985;BME280;9626;52.552;13.436;2023-04-02T00:24:19;100640.03;;;2.97;100.00
18985;BME280;9626;52.552;13.436;2023-04-02T00:26:50;100637.41;;;2.95;100.00
18985;BME280;9626;52.552;13.436;2023-04-02T00:29:18;100639.16;;;2.96;100.00
18985;BME280;9626;52.552;13.436;2023-04-02T00:31:50;100647.84;;;2.95;100.00
18985;BME280;9626;52.552;13.436;2023-04-02T00:36:48;100650.44;;;2.89;100.00
18985;BME280;9626;52.552;13.436;2023-04-02T00:39:21;100657.38;;;2.88;100.00
18985;BME280;9626;52.552;13.436;2023-04-02T00:41:51;100660.00;;;2.90;100.00
18985;BME280;9626;52.552;13.436;2023-04-02T00:44:28;100665.22;;;2.90;100.00
18985;BME280;9626;52.552;13.436;2023-04-02T00:47:02;100673.06;;;2.87;100.00
18985;BME280;9626;52.552;13.436;2023-04-02T00:49:35;100677.44;;;2.88;100.00
18985;BME280;9626;52.552;13.436;2023-04-02T00:52:04;100684.34;;;2.83;100.00
18985;BME280;9626;52.552;13.436;2023-04-02T00:54:37;100675.69;;;2.90;100.00
18985;BME280;9626;52.552;13.436;2023-04-02T00:57:12;100680.91;;;2.88;100.00
18985;BME280;9626;52.552;13.436;2023-04-02T00:59:57;100682.66;;;2.86;100.00
18985;BME280;9626;52.552;13.436;2023-04-02T01:02:32;100689.56;;;2.83;100.00
18985;BME280;9626;52.552;13.436;2023-04-02T01:05:21;100692.19;;;2.83;100.00
18985;BME280;9626;52.552;13.436;2023-04-02T01:08:14;100687.81;;;2.82;100.00
18985;BME280;9626;52.552;13.436;2023-04-02T01:13:30;100699.88;;;2.70;100.00
18985;BME280;9626;52.552;13.436;2023-04-02T01:16:06;100692.91;;;2.73;100.00
18985;BME280;9626;52.552;13.436;2023-04-02T01:21:20;100705.25;;;2.83;100.00
18985;BME280;9626;52.552;13.436;2023-04-02T01:23:58;100717.56;;;2.90;100.00
18985;BME280;9626;52.552;13.436;2023-04-02T01:26:44;100719.19;;;2.82;100.00
18985;BME280;9626;52.552;13.436;2023-04-02T01:29:20;100727.84;;;2.78;100.00
18985;BME280;9626;52.552;13.436;2023-04-02T01:31:49;100732.25;;;2.80;100.00
18985;BME280;9626;52.552;13.436;2023-04-02T01:34:19;100726.19;;;2.83;100.00
18985;BME280;9626;52.552;13.436;2023-04-02T01:45:09;100746.25;;;2.84;100.00
18985;BME280;9626;52.552;13.436;2023-04-02T01:47:37;100760.97;;;2.76;100.00
18985;BME280;9626;52.552;13.436;2023-04-02T01:52:42;100765.25;;;2.70;100.00
18985;BME280;9626;52.552;13.436;2023-04-02T01:55:12;100770.50;;;2.72;100.00
18985;BME280;9626;52.552;13.436;2023-04-02T01:57:41;100779.28;;;2.76;100.00
18985;BME280;9626;52.552;13.436;2023-04-02T02:00:12;100778.38;;;2.74;100.00
18985;BME280;9626;52.552;13.436;2023-04-02T02:02:40;100787.13;;;2.76;100.00
18985;BME280;9626;52.552;13.436;2023-04-02T02:05:15;100787.84;;;2.67;100.00
18985;BME280;9626;52.552;13.436;2023-04-02T02:08:01;100791.41;;;2.72;100.00
18985;BME280;9626;52.552;13.436;2023-04-02T02:10:34;100795.81;;;2.73;100.00
18985;BME280;9626;52.552;13.436;2023-04-02T02:13:01;100804.44;;;2.67;100.00
18985;BME280;9626;52.552;13.436;2023-04-02T02:15:27;100816.78;;;2.78;100.00
18985;BME280;9626;52.552;13.436;2023-04-02T02:17:58;100814.00;;;2.65;100.00
18985;BME280;9626;52.552;13.436;2023-04-02T02:20:27;100819.19;;;2.64;100.00
18985;BME280;9626;52.552;13.436;2023-04-02T02:22:55;100825.25;;;2.61;100.00
18985;BME280;9626;52.552;13.436;2023-04-02T02:25:28;100830.56;;;2.66;100.00
18985;BME280;9626;52.552;13.436;2023-04-02T02:28:17;100837.63;;;2.72;100.00
18985;BME280;9626;52.552;13.436;2023-04-02T02:30:48;100839.28;;;2.66;100.00
18985;BME280;9626;52.552;13.436;2023-04-02T02:33:22;100837.53;;;2.67;100.00
18985;BME280;9626;52.552;13.436;2023-04-02T02:35:56;100843.47;;;2.55;100.00
18985;BME280;9626;52.552;13.436;2023-04-02T02:46:22;100858.47;;;2.68;100.00
18985;BME280;9626;52.552;13.436;2023-04-02T02:48:52;100861.97;;;2.67;100.00
18985;BME280;9626;52.552;13.436;2023-04-02T02:51:25;100868.19;;;2.74;100.00
18985;BME280;9626;52.552;13.436;2023-04-02T02:53:58;100877.78;;;2.77;100.00
18985;BME280;9626;52.552;13.436;2023-04-02T02:56:28;100877.78;;;2.77;100.00
18985;BME280;9626;52.552;13.436;2023-04-02T02:58:56;100876.09;;;2.79;100.00
18985;BME280;9626;52.552;13.436;2023-04-02T03:01:23;100879.69;;;2.87;100.00
18985;BME280;9626;52.552;13.436;2023-04-02T03:03:52;100887.38;;;2.76;100.00
18985;BME280;9626;52.552;13.436;2023-04-02T03:06:19;100882.88;;;2.66;100.00
18985;BME280;9626;52.552;13.436;2023-04-02T03:08:54;100900.19;;;2.59;100.00
18985;BME280;9626;52.552;13.436;2023-04-02T03:11:39;100892.41;;;2.64;100.00
18985;BME280;9626;52.552;13.436;2023-04-02T03:17:09;100911.50;;;2.58;100.00
18985;BME280;9626;52.552;13.436;2023-04-02T03:19:56;100910.78;;;2.68;100.00
18985;BME280;9626;52.552;13.436;2023-04-02T03:22:36;100912.66;;;2.76;100.00
18985;BME280;9626;52.552;13.436;2023-04-02T03:25:32;100913.50;;;2.75;100.00
18985;BME280;9626;52.552;13.436;2023-04-02T03:28:04;100918.78;;;2.78;100.00
18985;BME280;9626;52.552;13.436;2023-04-02T03:30:51;100921.41;;;2.79;100.00
18985;BME280;9626;52.552;13.436;2023-04-02T03:33:26;100926.59;;;2.76;100.00
18985;BME280;9626;52.552;13.436;2023-04-02T03:38:45;100928.34;;;2.76;100.00
18985;BME280;9626;52.552;13.436;2023-04-02T03:44:44;100951.78;;;2.69;100.00
18985;BME280;9626;52.552;13.436;2023-04-02T03:47:16;100956.97;;;2.66;100.00
18985;BME280;9626;52.552;13.436;2023-04-02T03:49:57;100957.97;;;2.75;100.00
18985;BME280;9626;52.552;13.436;2023-04-02T03:52:27;100959.66;;;2.73;100.00
18985;BME280;9626;52.552;13.436;2023-04-02T03:54:58;100963.03;;;2.65;100.00
18985;BME280;9626;52.552;13.436;2023-04-02T04:01:16;100971.63;;;2.58;100.00
18985;BME280;9626;52.552;13.436;2023-04-02T04:03:39;100977.84;;;2.63;100.00
18985;BME280;9626;52.552;13.436;2023-04-02T04:08:44;100978.75;;;2.68;100.00
18985;BME280;9626;52.552;13.436;2023-04-02T04:11:18;100995.34;;;2.67;100.00
18985;BME280;9626;52.552;13.436;2023-04-02T04:16:25;101001.47;;;2.71;100.00
18985;BME280;9626;52.552;13.436;2023-04-02T04:18:58;101004.13;;;2.73;100.00
18985;BME280;9626;52.552;13.436;2023-04-02T04:21:28;101003.31;;;2.77;100.00
18985;BME280;9626;52.552;13.436;2023-04-02T04:24:00;101012.28;;;2.90;100.00
18985;BME280;9626;52.552;13.436;2023-04-02T04:31:49;101022.34;;;2.68;100.00
18985;BME280;9626;52.552;13.436;2023-04-02T04:34:42;101037.38;;;2.78;100.00
18985;BME280;9626;52.552;13.436;2023-04-02T04:37:19;101030.22;;;2.69;100.00
18985;BME280;9626;52.552;13.436;2023-04-02T04:39:55;101043.28;;;2.68;100.00
18985;BME280;9626;52.552;13.436;2023-04-02T04:42:29;101041.53;;;2.68;100.00
18985;BME280;9626;52.552;13.436;2023-04-02T04:45:07;101048.53;;;2.69;100.00
18985;BME280;9626;52.552;13.436;2023-04-02T04:47:41;101059.84;;;2.68;100.00
18985;BME280;9626;52.552;13.436;2023-04-02T04:52:40;101065.28;;;2.81;100.00
18985;BME280;9626;52.552;13.436;2023-04-02T04:55:28;101071.44;;;2.83;100.00
18985;BME280;9626;52.552;13.436;2023-04-02T04:57:59;101075.81;;;2.82;100.00
18985;BME280;9626;52.552;13.436;2023-04-02T05:00:45;101074.09;;;2.84;100.00
18985;BME280;9626;52.552;13.436;2023-04-02T05:05:49;101086.59;;;3.02;100.00
18985;BME280;9626;52.552;13.436;2023-04-02T05:08:21;101096.16;;;2.99;100.00
18985;BME280;9626;52.552;13.436;2023-04-02T05:10:58;101106.59;;;2.97;100.00
18985;BME280;9626;52.552;13.436;2023-04-02T05:13:51;101106.66;;;3.00;100.00
18985;BME280;9626;52.552;13.436;2023-04-02T05:17:04;101113.53;;;2.95;100.00
18985;BME280;9626;52.552;13.436;2023-04-02T05:19:50;101109.09;;;2.91;100.00
18985;BME280;9626;52.552;13.436;2023-04-02T05:25:21;101127.41;;;2.91;100.00
18985;BME280;9626;52.552;13.436;2023-04-02T05:27:59;101131.00;;;2.96;100.00
18985;BME280;9626;52.552;13.436;2023-04-02T05:30:55;101132.81;;;3.00;100.00
18985;BME280;9626;52.552;13.436;2023-04-02T05:33:28;101135.44;;;3.02;100.00
18985;BME280;9626;52.552;13.436;2023-04-02T05:36:04;101145.03;;;3.01;100.00
18985;BME280;9626;52.552;13.436;2023-04-02T05:38:34;101143.13;;;2.94;100.00
18985;BME280;9626;52.552;13.436;2023-04-02T05:41:33;101146.56;;;2.90;100.00
18985;BME280;9626;52.552;13.436;2023-04-02T05:46:47;101157.16;;;2.96;100.00
18985;BME280;9626;52.552;13.436;2023-04-02T05:49:29;101163.28;;;2.98;100.00
18985;BME280;9626;52.552;13.436;2023-04-02T05:51:58;101162.50;;;3.04;100.00
18985;BME280;9626;52.552;13.436;2023-04-02T05:54:32;101173.84;;;3.03;100.00
18985;BME280;9626;52.552;13.436;2023-04-02T05:57:05;101168.63;;;3.04;100.00
18985;BME280;9626;52.552;13.436;2023-04-02T05:59:38;101166.06;;;3.08;100.00
18985;BME280;9626;52.552;13.436;2023-04-02T06:04:57;101179.34;;;3.17;100.00
18985;BME280;9626;52.552;13.436;2023-04-02T06:07:30;101190.81;;;3.25;100.00
18985;BME280;9626;52.552;13.436;2023-04-02T06:10:04;101187.38;;;3.26;100.00
18985;BME280;9626;52.552;13.436;2023-04-02T06:12:43;101202.31;;;3.33;100.00
18985;BME280;9626;52.552;13.436;2023-04-02T06:15:19;101203.38;;;3.45;100.00
18985;BME280;9626;52.552;13.436;2023-04-02T06:20:38;101206.09;;;3.49;100.00
18985;BME280;9626;52.552;13.436;2023-04-02T06:26:00;101222.00;;;3.60;100.00
18985;BME280;9626;52.552;13.436;2023-04-02T06:28:33;101221.25;;;3.67;100.00
18985;BME280;9626;52.552;13.436;2023-04-02T06:31:06;101228.31;;;3.71;100.00
18985;BME280;9626;52.552;13.436;2023-04-02T06:33:34;101229.28;;;3.78;100.00
18985;BME280;9626;52.552;13.436;2023-04-02T06:36:00;101231.16;;;3.85;100.00
18985;BME280;9626;52.552;13.436;2023-04-02T06:38:29;101229.44;;;3.87;100.00
18985;BME280;9626;52.552;13.436;2023-04-02T06:40:59;101239.03;;;3.87;100.00
18985;BME280;9626;52.552;13.436;2023-04-02T06:49:02;101257.88;;;4.16;100.00
18985;BME280;9626;52.552;13.436;2023-04-02T06:51:31;101251.06;;;4.31;100.00
18985;BME280;9626;52.552;13.436;2023-04-02T06:54:00;101253.78;;;4.35;100.00
18985;BME280;9626;52.552;13.436;2023-04-02T06:59:07;101279.22;;;4.43;100.00
18985;BME280;9626;52.552;13.436;2023-04-02T07:01:55;101276.59;;;4.43;100.00
18985;BME280;9626;52.552;13.436;2023-04-02T07:04:23;101280.22;;;4.51;100.00
18985;BME280;9626;52.552;13.436;2023-04-02T07:06:50;101280.38;;;4.62;100.00
18985;BME280;9626;52.552;13.436;2023-04-02T07:09:16;101278.75;;;4.71;100.00
18985;BME280;9626;52.552;13.436;2023-04-02T07:11:42;101282.19;;;4.66;100.00
18985;BME280;9626;52.552;13.436;2023-04-02T07:14:12;101294.25;;;4.53;100.00
18985;BME280;9626;52.552;13.436;2023-04-02T07:16:40;101289.03;;;4.56;100.00
18985;BME280;9626;52.552;13.436;2023-04-02T07:19:15;101294.47;;;4.70;100.00
18985;BME280;9626;52.552;13.436;2023-04-02T07:21:41;101298.09;;;4.77;100.00
18985;BME280;9626;52.552;13.436;2023-04-02T07:24:07;101298.13;;;4.80;100.00
18985;BME280;9626;52.552;13.436;2023-04-02T07:26:33;101292.84;;;4.77;100.00
18985;BME280;9626;52.552;13.436;2023-04-02T07:28:59;101300.16;;;4.99;100.00
18985;BME280;9626;52.552;13.436;2023-04-02T07:31:27;101307.22;;;5.06;100.00
18985;BME280;9626;52.552;13.436;2023-04-02T07:33:55;101301.13;;;5.09;100.00
18985;BME280;9626;52.552;13.436;2023-04-02T07:36:23;101307.25;;;5.10;98.60
18985;BME280;9626;52.552;13.436;2023-04-02T07:38:49;101314.06;;;4.94;94.92
18985;BME280;9626;52.552;13.436;2023-04-02T07:41:16;101312.28;;;4.91;93.53
18985;BME280;9626;52.552;13.436;2023-04-02T07:43:42;101321.00;;;4.90;92.03
18985;BME280;9626;52.552;13.436;2023-04-02T07:46:09;101329.69;;;4.86;92.63
18985;BME280;9626;52.552;13.436;2023-04-02T07:48:35;101325.25;;;4.80;93.71
18985;BME280;9626;52.552;13.436;2023-04-02T07:51:01;101330.53;;;4.83;94.12
18985;BME280;9626;52.552;13.436;2023-04-02T07:53:35;101342.63;;;4.72;93.74
18985;BME280;9626;52.552;13.436;2023-04-02T07:56:04;101345.16;;;4.67;94.40
18985;BME280;9626;52.552;13.436;2023-04-02T07:58:31;101344.38;;;4.73;94.19
18985;BME280;9626;52.552;13.436;2023-04-02T08:00:59;101361.84;;;4.71;92.28
18985;BME280;9626;52.552;13.436;2023-04-02T08:03:26;101358.25;;;4.66;93.45
18985;BME280;9626;52.552;13.436;2023-04-02T08:05:55;101366.16;;;4.67;94.67
18985;BME280;9626;52.552;13.436;2023-04-02T08:08:22;101371.50;;;4.73;94.60
18985;BME280;9626;52.552;13.436;2023-04-02T08:10:49;101377.59;;;4.72;93.13
18985;BME280;9626;52.552;13.436;2023-04-02T08:13:16;101370.72;;;4.79;93.18
18985;BME280;9626;52.552;13.436;2023-04-02T08:15:43;101385.66;;;4.83;91.87
18985;BME280;9626;52.552;13.436;2023-04-02T08:18:10;101386.50;;;4.82;91.30
18985;BME280;9626;52.552;13.436;2023-04-02T08:20:36;101383.16;;;4.91;89.57
18985;BME280;9626;52.552;13.436;2023-04-02T08:23:03;101388.41;;;4.93;89.49
18985;BME280;9626;52.552;13.436;2023-04-02T08:25:29;101392.72;;;4.87;89.86
18985;BME280;9626;52.552;13.436;2023-04-02T08:27:55;101385.66;;;4.85;90.11
18985;BME280;9626;52.552;13.436;2023-04-02T08:30:22;101393.84;;;5.06;87.73
18985;BME280;9626;52.552;13.436;2023-04-02T08:32:48;101400.72;;;4.97;87.46
18985;BME280;9626;52.552;13.436;2023-04-02T08:35:15;101406.03;;;5.03;86.55
18985;BME280;9626;52.552;13.436;2023-04-02T08:37:42;101403.50;;;5.06;85.56
18985;BME280;9626;52.552;13.436;2023-04-02T08:40:19;101422.03;;;5.18;86.14
18985;BME280;9626;52.552;13.436;2023-04-02T08:43:00;101418.41;;;5.08;85.79
18985;BME280;9626;52.552;13.436;2023-04-02T08:48:13;101427.94;;;5.03;85.39
18985;BME280;9626;52.552;13.436;2023-04-02T08:50:41;101431.28;;;4.93;85.87
18985;BME280;9626;52.552;13.436;2023-04-02T08:53:28;101426.22;;;5.07;86.88
18985;BME280;9626;52.552;13.436;2023-04-02T08:56:08;101437.72;;;5.14;84.83
18985;BME280;9626;52.552;13.436;2023-04-02T08:59:01;101435.31;;;5.29;86.00
18985;BME280;9626;52.552;13.436;2023-04-02T09:01:46;101443.28;;;5.35;85.23
18985;BME280;9626;52.552;13.436;2023-04-02T09:04:16;101450.41;;;5.44;85.38
18985;BME280;9626;52.552;13.436;2023-04-02T09:06:43;101445.81;;;5.29;84.94
18985;BME280;9626;52.552;13.436;2023-04-02T09:09:14;101456.06;;;5.11;84.32
18985;BME280;9626;52.552;13.436;2023-04-02T09:17:20;101463.16;;;5.18;83.95
18985;BME280;9626;52.552;13.436;2023-04-02T09:19:56;101460.34;;;5.05;81.94
18985;BME280;9626;52.552;13.436;2023-04-02T09:22:32;101467.88;;;5.42;81.36
18985;BME280;9626;52.552;13.436;2023-04-02T09:25:04;101472.47;;;5.57;79.49
18985;BME280;9626;52.552;13.436;2023-04-02T09:27:35;101460.03;;;5.44;78.05
18985;BME280;9626;52.552;13.436;2023-04-02T09:32:59;101471.84;;;5.14;77.95
18985;BME280;9626;52.552;13.436;2023-04-02T09:35:29;101476.19;;;5.74;74.50
18985;BME280;9626;52.552;13.436;2023-04-02T09:43:25;101482.03;;;7.19;62.46
18985;BME280;9626;52.552;13.436;2023-04-02T09:45:56;101488.03;;;6.98;62.52
18985;BME280;9626;52.552;13.436;2023-04-02T09:51:18;101505.22;;;6.56;64.02
18985;BME280;9626;52.552;13.436;2023-04-02T09:53:48;101510.28;;;6.37;63.96
18985;BME280;9626;52.552;13.436;2023-04-02T09:56:21;101503.13;;;6.25;65.02
18985;BME280;9626;52.552;13.436;2023-04-02T09:59:17;101514.31;;;6.09;68.02
18985;BME280;9626;52.552;13.436;2023-04-02T10:02:16;101516.97;;;6.11;67.46
18985;BME280;9626;52.552;13.436;2023-04-02T10:04:48;101528.41;;;6.14;67.48
18985;BME280;9626;52.552;13.436;2023-04-02T10:07:37;101528.19;;;8.08;60.45
18985;BME280;9626;52.552;13.436;2023-04-02T10:10:17;101529.09;;;8.11;58.74
18985;BME280;9626;52.552;13.436;2023-04-02T10:12:53;101531.00;;;8.53;56.59
18985;BME280;9626;52.552;13.436;2023-04-02T10:21:22;101555.25;;;7.64;59.16
18985;BME280;9626;52.552;13.436;2023-04-02T10:23:49;101553.47;;;7.64;59.57
18985;BME280;9626;52.552;13.436;2023-04-02T10:29:03;101558.94;;;6.76;63.44
18985;BME280;9626;52.552;13.436;2023-04-02T10:40:41;101568.41;;;6.59;64.28
18985;BME280;9626;52.552;13.436;2023-04-02T10:49:12;101570.41;;;8.12;59.70
18985;BME280;9626;52.552;13.436;2023-04-02T10:59:56;101577.41;;;10.58;49.39
18985;BME280;9626;52.552;13.436;2023-04-02T11:05:42;101583.00;;;8.78;55.23
18985;BME280;9626;52.552;13.436;2023-04-02T11:11:07;101597.63;;;8.01;57.06
18985;BME280;9626;52.552;13.436;2023-04-02T11:16:12;101611.47;;;7.69;58.38
18985;BME280;9626;52.552;13.436;2023-04-02T11:18:42;101614.75;;;7.35;60.07
18985;BME280;9626;52.552;13.436;2023-04-02T11:21:43;101616.44;;;7.25;59.83
18985;BME280;9626;52.552;13.436;2023-04-02T11:29:36;101626.81;;;7.11;61.91
18985;BME280;9626;52.552;13.436;2023-04-02T11:42:37;101624.41;;;9.91;50.16
18985;BME280;9626;52.552;13.436;2023-04-02T11:50:44;101630.59;;;9.53;51.29
18985;BME280;9626;52.552;13.436;2023-04-02T11:55:39;101640.31;;;9.26;51.51
18985;BME280;9626;52.552;13.436;2023-04-02T12:01:12;101643.69;;;8.69;54.12
18985;BME280;9626;52.552;13.436;2023-04-02T12:09:58;101665.22;;;7.83;57.66
18985;BME280;9626;52.552;13.436;2023-04-02T12:12:30;101666.13;;;7.90;57.05
18985;BME280;9626;52.552;13.436;2023-04-02T12:14:59;101664.44;;;8.03;57.35
18985;BME280;9626;52.552;13.436;2023-04-02T12:17:37;101676.84;;;8.15;56.24
18985;BME280;9626;52.552;13.436;2023-04-02T12:22:37;101674.13;;;8.04;56.65
18985;BME280;9626;52.552;13.436;2023-04-02T12:28:05;101685.84;;;8.48;54.94
18985;BME280;9626;52.552;13.436;2023-04-02T12:30:32;101684.03;;;8.43;54.87
18985;BME280;9626;52.552;13.436;2023-04-02T12:35:39;101674.66;;;9.23;51.74
18985;BME280;9626;52.552;13.436;2023-04-02T12:38:21;101677.31;;;9.44;51.69
18985;BME280;9626;52.552;13.436;2023-04-02T12:40:54;101687.03;;;9.69;50.07
18985;BME280;9626;52.552;13.436;2023-04-02T12:43:31;101687.88;;;9.26;50.79
18985;BME280;9626;52.552;13.436;2023-04-02T12:46:00;101695.66;;;8.75;52.48
18985;BME280;9626;52.552;13.436;2023-04-02T12:48:27;101696.47;;;8.60;53.46
18985;BME280;9626;52.552;13.436;2023-04-02T12:50:55;101687.84;;;9.20;51.25
18985;BME280;9626;52.552;13.436;2023-04-02T12:53:29;101686.69;;;11.05;47.01
18985;BME280;9626;52.552;13.436;2023-04-02T12:55:57;101680.06;;;12.56;42.94
18985;BME280;9626;52.552;13.436;2023-04-02T13:01:20;101687.28;;;11.47;44.52
18985;BME280;9626;52.552;13.436;2023-04-02T13:04:02;101680.78;;;10.22;46.42
18985;BME280;9626;52.552;13.436;2023-04-02T13:06:28;101693.19;;;9.47;49.28
18985;BME280;9626;52.552;13.436;2023-04-02T13:08:56;101699.31;;;9.25;50.12
18985;BME280;9626;52.552;13.436;2023-04-02T13:11:38;101696.63;;;9.02;51.34
18985;BME280;9626;52.552;13.436;2023-04-02T13:14:19;101693.94;;;8.88;51.93
18985;BME280;9626;52.552;13.436;2023-04-02T13:16:46;101696.44;;;8.54;52.97
18985;BME280;9626;52.552;13.436;2023-04-02T13:21:41;101703.72;;;10.31;49.64
18985;BME280;9626;52.552;13.436;2023-04-02T13:24:26;101705.31;;;12.12;45.11
18985;BME280;9626;52.552;13.436;2023-04-02T13:26:59;101707.09;;;12.11;43.34
18985;BME280;9626;52.552;13.436;2023-04-02T13:29:28;101700.34;;;12.62;41.81
18985;BME280;9626;52.552;13.436;2023-04-02T13:31:59;101704.22;;;11.23;44.02
18985;BME280;9626;52.552;13.436;2023-04-02T13:34:27;101699.31;;;10.38;46.01
18985;BME280;9626;52.552;13.436;2023-04-02T13:36:53;101701.13;;;9.47;49.01
18985;BME280;9626;52.552;13.436;2023-04-02T13:39:20;101712.47;;;9.00;51.26
18985;BME280;9626;52.552;13.436;2023-04-02T13:41:51;101715.09;;;8.92;52.38
18985;BME280;9626;52.552;13.436;2023-04-02T13:44:24;101714.22;;;8.92;52.37
18985;BME280;9626;52.552;13.436;2023-04-02T13:46:52;101722.31;;;9.85;51.29
18985;BME280;9626;52.552;13.436;2023-04-02T13:49:19;101719.72;;;11.80;46.49
18985;BME280;9626;52.552;13.436;2023-04-02T13:51:51;101719.53;;;10.59;46.67
18985;BME280;9626;52.552;13.436;2023-04-02T13:54:28;101719.63;;;9.55;49.84
18985;BME280;9626;52.552;13.436;2023-04-02T13:56:56;101724.84;;;9.13;50.65
18985;BME280;9626;52.552;13.436;2023-04-02T13:59:23;101726.53;;;8.87;51.25
18985;BME280;9626;52.552;13.436;2023-04-02T14:01:50;101727.41;;;8.90;51.86
18985;BME280;9626;52.552;13.436;2023-04-02T14:04:24;101724.91;;;10.15;49.47
18985;BME280;9626;52.552;13.436;2023-04-02T14:07:08;101733.66;;;10.58;47.21
18985;BME280;9626;52.552;13.436;2023-04-02T14:24:04;101737.94;;;11.02;45.93
18985;BME280;9626;52.552;13.436;2023-04-02T14:27:17;101731.13;;;9.79;47.35
18985;BME280;9626;52.552;13.436;2023-04-02T14:32:03;101762.56;;;8.75;51.55
18985;BME280;9626;52.552;13.436;2023-04-02T14:34:44;101754.53;;;8.52;51.86
18985;BME280;9626;52.552;13.436;2023-04-02T14:40:48;101750.22;;;11.19;45.09
18985;BME280;9626;52.552;13.436;2023-04-02T14:46:11;101768.84;;;8.99;50.44
18985;BME280;9626;52.552;13.436;2023-04-02T14:51:16;101779.03;;;8.40;52.12
18985;BME280;9626;52.552;13.436;2023-04-02T14:56:48;101778.97;;;8.31;52.06
18985;BME280;9626;52.552;13.436;2023-04-02T14:59:20;101778.13;;;8.32;52.89
18985;BME280;9626;52.552;13.436;2023-04-02T15:01:53;101780.19;;;8.79;51.87
18985;BME280;9626;52.552;13.436;2023-04-02T15:04:33;101778.69;;;9.45;49.95
18985;BME280;9626;52.552;13.436;2023-04-02T15:07:06;101777.72;;;9.17;50.08
18985;BME280;9626;52.552;13.436;2023-04-02T15:09:41;101781.00;;;8.66;52.02
18985;BME280;9626;52.552;13.436;2023-04-02T15:12:19;101787.94;;;8.52;52.00
18985;BME280;9626;52.552;13.436;2023-04-02T15:14:51;101790.19;;;8.01;53.17
18985;BME280;9626;52.552;13.436;2023-04-02T15:17:19;101797.03;;;7.78;54.08
18985;BME280;9626;52.552;13.436;2023-04-02T15:19:46;101804.03;;;9.01;51.68
18985;BME280;9626;52.552;13.436;2023-04-02T15:22:30;101798.16;;;10.10;48.82
18985;BME280;9626;52.552;13.436;2023-04-02T15:30:56;101819.91;;;7.83;53.48
18985;BME280;9626;52.552;13.436;2023-04-02T15:33:44;101823.25;;;8.71;51.91
18985;BME280;9626;52.552;13.436;2023-04-02T15:38:44;101821.00;;;10.87;46.73
18985;BME280;9626;52.552;13.436;2023-04-02T15:41:22;101819.31;;;10.68;46.38
18985;BME280;9626;52.552;13.436;2023-04-02T15:44:13;101828.00;;;9.46;48.17
18985;BME280;9626;52.552;13.436;2023-04-02T15:50:18;101837.09;;;8.39;51.18
18985;BME280;9626;52.552;13.436;2023-04-02T15:52:56;101843.03;;;9.58;48.16
18985;BME280;9626;52.552;13.436;2023-04-02T15:55:44;101837.81;;;9.92;47.25
18985;BME280;9626;52.552;13.436;2023-04-02T15:58:49;101846.69;;;10.43;46.14
18985;BME280;9626;52.552;13.436;2023-04-02T16:09:20;101872.56;;;7.75;51.88
18985;BME280;9626;52.552;13.436;2023-04-02T16:11:54;101869.59;;;7.45;53.48
18985;BME280;9626;52.552;13.436;2023-04-02T16:14:28;101877.41;;;7.38;56.45
18985;BME280;9626;52.552;13.436;2023-04-02T16:16:58;101882.88;;;8.42;52.80
18985;BME280;9626;52.552;13.436;2023-04-02T16:19:45;101885.94;;;8.96;50.65
18985;BME280;9626;52.552;13.436;2023-04-02T16:22:26;101885.06;;;9.02;49.27
18985;BME280;9626;52.552;13.436;2023-04-02T16:25:00;101889.75;;;9.60;48.68
18985;BME280;9626;52.552;13.436;2023-04-02T16:27:37;101901.22;;;9.58;47.77
18985;BME280;9626;52.552;13.436;2023-04-02T16:30:25;101898.91;;;8.64;49.89
18985;BME280;9626;52.552;13.436;2023-04-02T16:39:23;101916.81;;;7.28;54.12
18985;BME280;9626;52.552;13.436;2023-04-02T16:44:50;101930.50;;;7.04;54.99
18985;BME280;9626;52.552;13.436;2023-04-02T17:04:43;101959.88;;;6.22;59.04
18985;BME280;9626;52.552;13.436;2023-04-02T17:07:24;101957.25;;;6.22;60.04
18985;BME280;9626;52.552;13.436;2023-04-02T17:10:06;101963.22;;;6.15;60.17
18985;BME280;9626;52.552;13.436;2023-04-02T17:12:44;101965.94;;;6.18;60.66
18985;BME280;9626;52.552;13.436;2023-04-02T17:15:19;101965.84;;;6.13;60.63
18985;BME280;9626;52.552;13.436;2023-04-02T17:17:47;101967.59;;;6.13;61.44
18985;BME280;9626;52.552;13.436;2023-04-02T17:20:22;101978.75;;;6.01;62.14
18985;BME280;9626;52.552;13.436;2023-04-02T17:22:49;101977.66;;;5.91;63.14
18985;BME280;9626;52.552;13.436;2023-04-02T17:25:26;101984.25;;;5.70;64.11
18985;BME280;9626;52.552;13.436;2023-04-02T17:27:54;101985.94;;;5.68;64.99
18985;BME280;9626;52.552;13.436;2023-04-02T17:30:34;101983.91;;;5.55;65.62
18985;BME280;9626;52.552;13.436;2023-04-02T17:33:21;101998.72;;;5.51;66.70
18985;BME280;9626;52.552;13.436;2023-04-02T17:38:50;102008.25;;;5.48;66.85
18985;BME280;9626;52.552;13.436;2023-04-02T17:41:48;102002.88;;;5.41;67.81
18985;BME280;9626;52.552;13.436;2023-04-02T17:47:13;102008.72;;;5.28;69.64
18985;BME280;9626;52.552;13.436;2023-04-02T17:52:28;102021.53;;;5.14;71.80
18985;BME280;9626;52.552;13.436;2023-04-02T17:55:18;102028.94;;;4.96;72.24
18985;BME280;9626;52.552;13.436;2023-04-02T18:01:14;102025.56;;;5.01;74.08
18985;BME280;9626;52.552;13.436;2023-04-02T18:17:20;102055.28;;;4.65;78.51
18985;BME280;9626;52.552;13.436;2023-04-02T18:22:44;102072.56;;;4.57;79.66
18985;BME280;9626;52.552;13.436;2023-04-02T18:30:46;102078.09;;;4.36;81.58
18985;BME280;9626;52.552;13.436;2023-04-02T18:49:47;102106.81;;;4.01;87.29